sensor_id;sensor_type;location;lat;lon;timestamp;noise_LAeq;noise_LA_min;noise_LA_max;noise_LA01;noise_LA95
73206;Laerm;61415;55.702;37.460;2023-02-02T00:00:03;59.06;53.77;64.04;;
73206;Laerm;61415;55.702;37.460;2023-02-02T00:00:34;60.49;56.06;66.39;;
73206;Laerm;61415;55.702;37.460;2023-02-02T00:01:07;60.04;54.52;66.45;;
73206;Laerm;61415;55.702;37.460;2023-02-02T00:01:38;61.01;54.02;65.71;;
73206;Laerm;61415;55.702;37.460;2023-02-02T00:02:09;62.13;56.17;67.29;;
73206;Laerm;61415;55.702;37.460;2023-02-02T00:02:39;60.72;55.10;65.02;;
73206;Laerm;61415;55.702;37.460;2023-02-02T00:03:11;60.78;55.20;66.27;;
73206;Laerm;61415;55.702;37.460;2023-02-02T00:03:41;60.04;55.62;65.10;;
73206;Laerm;61415;55.702;37.460;2023-02-02T00:04:14;61.42;57.28;66.76;;
73206;Laerm;61415;55.702;37.460;2023-02-02T00:04:45;64.51;58.00;68.19;;
73206;Laerm;61415;55.702;37.460;2023-02-02T00:05:16;58.95;55.33;63.44;;
73206;Laerm;61415;55.702;37.460;2023-02-02T00:05:48;58.69;54.49;64.09;;
73206;Laerm;61415;55.702;37.460;2023-02-02T00:06:21;61.10;55.07;65.00;;
73206;Laerm;61415;55.702;37.460;2023-02-02T00:06:52;62.30;57.83;69.20;;
73206;Laerm;61415;55.702;37.460;2023-02-02T00:07:23;59.40;54.31;67.81;;
73206;Laerm;61415;55.702;37.460;2023-02-02T00:07:54;59.50;54.47;63.88;;
73206;Laerm;61415;55.702;37.460;2023-02-02T00:08:24;64.47;55.37;69.43;;
73206;Laerm;61415;55.702;37.460;2023-02-02T00:08:56;58.32;52.47;62.48;;
73206;Laerm;61415;55.702;37.460;2023-02-02T00:09:28;61.37;54.80;67.35;;
73206;Laerm;61415;55.702;37.460;2023-02-02T00:09:59;61.31;55.22;66.95;;
73206;Laerm;61415;55.702;37.460;2023-02-02T00:10:30;61.88;55.13;68.49;;
73206;Laerm;61415;55.702;37.460;2023-02-02T00:11:01;58.95;55.00;65.04;;
73206;Laerm;61415;55.702;37.460;2023-02-02T00:11:31;60.94;55.79;64.20;;
73206;Laerm;61415;55.702;37.460;2023-02-02T00:12:02;60.57;53.31;65.08;;
73206;Laerm;61415;55.702;37.460;2023-02-02T00:12:33;56.91;52.28;61.56;;
73206;Laerm;61415;55.702;37.460;2023-02-02T00:13:04;61.82;55.73;70.32;;
73206;Laerm;61415;55.702;37.460;2023-02-02T00:13:35;63.86;56.71;70.61;;
73206;Laerm;61415;55.702;37.460;2023-02-02T00:14:06;60.88;56.23;65.45;;
73206;Laerm;61415;55.702;37.460;2023-02-02T00:14:37;60.36;53.12;69.08;;
73206;Laerm;61415;55.702;37.460;2023-02-02T00:15:08;63.24;57.88;68.61;;
73206;Laerm;61415;55.702;37.460;2023-02-02T00:15:39;63.29;57.04;69.94;;
73206;Laerm;61415;55.702;37.460;2023-02-02T00:17:10;57.49;50.62;65.08;;
73206;Laerm;61415;55.702;37.460;2023-02-02T00:17:11;62.84;56.02;69.22;;
73206;Laerm;61415;55.702;37.460;2023-02-02T00:17:41;63.80;58.45;68.26;;
73206;Laerm;61415;55.702;37.460;2023-02-02T00:18:11;58.41;52.05;65.64;;
73206;Laerm;61415;55.702;37.460;2023-02-02T00:18:42;59.85;53.25;68.10;;
73206;Laerm;61415;55.702;37.460;2023-02-02T00:19:17;58.25;53.14;63.67;;
73206;Laerm;61415;55.702;37.460;2023-02-02T00:19:48;60.08;54.83;65.36;;
73206;Laerm;61415;55.702;37.460;2023-02-02T00:20:19;59.33;53.68;64.85;;
73206;Laerm;61415;55.702;37.460;2023-02-02T00:20:51;62.18;59.03;65.63;;
73206;Laerm;61415;55.702;37.460;2023-02-02T00:21:23;61.34;55.85;67.87;;
73206;Laerm;61415;55.702;37.460;2023-02-02T00:21:54;59.49;54.11;64.62;;
73206;Laerm;61415;55.702;37.460;2023-02-02T00:22:25;57.44;53.83;60.57;;
73206;Laerm;61415;55.702;37.460;2023-02-02T00:22:57;57.80;53.51;63.21;;
73206;Laerm;61415;55.702;37.460;2023-02-02T00:23:27;57.70;53.11;63.47;;
73206;Laerm;61415;55.702;37.460;2023-02-02T00:23:58;58.22;51.80;64.84;;
73206;Laerm;61415;55.702;37.460;2023-02-02T00:24:29;58.10;52.31;63.70;;
73206;Laerm;61415;55.702;37.460;2023-02-02T00:25:00;57.08;53.88;60.40;;
73206;Laerm;61415;55.702;37.460;2023-02-02T00:25:31;62.71;52.13;71.42;;
73206;Laerm;61415;55.702;37.460;2023-02-02T00:26:02;65.56;59.91;70.87;;
73206;Laerm;61415;55.702;37.460;2023-02-02T00:26:33;60.58;52.56;68.41;;
73206;Laerm;61415;55.702;37.460;2023-02-02T00:27:03;56.81;50.65;62.59;;
73206;Laerm;61415;55.702;37.460;2023-02-02T00:27:34;60.21;53.99;63.69;;
73206;Laerm;61415;55.702;37.460;2023-02-02T00:28:05;57.43;53.02;66.31;;
73206;Laerm;61415;55.702;37.460;2023-02-02T00:28:36;62.14;55.88;67.27;;
73206;Laerm;61415;55.702;37.460;2023-02-02T00:29:07;59.39;54.55;65.48;;
73206;Laerm;61415;55.702;37.460;2023-02-02T00:29:37;59.46;55.90;63.21;;
73206;Laerm;61415;55.702;37.460;2023-02-02T00:30:09;58.39;51.56;65.03;;
73206;Laerm;61415;55.702;37.460;2023-02-02T00:30:40;60.57;55.50;70.26;;
73206;Laerm;61415;55.702;37.460;2023-02-02T00:31:11;61.84;51.75;67.79;;
73206;Laerm;61415;55.702;37.460;2023-02-02T00:31:42;65.60;55.75;73.85;;
73206;Laerm;61415;55.702;37.460;2023-02-02T00:32:12;62.11;55.49;71.01;;
73206;Laerm;61415;55.702;37.460;2023-02-02T00:32:43;61.64;56.72;66.96;;
73206;Laerm;61415;55.702;37.460;2023-02-02T00:33:17;58.27;52.12;64.03;;
73206;Laerm;61415;55.702;37.460;2023-02-02T00:33:48;57.48;53.18;61.79;;
73206;Laerm;61415;55.702;37.460;2023-02-02T00:34:20;56.41;50.35;63.07;;
73206;Laerm;61415;55.702;37.460;2023-02-02T00:34:51;58.93;53.82;64.74;;
73206;Laerm;61415;55.702;37.460;2023-02-02T00:35:22;62.31;53.44;68.35;;
73206;Laerm;61415;55.702;37.460;2023-02-02T00:35:53;60.46;55.01;64.61;;
73206;Laerm;61415;55.702;37.460;2023-02-02T00:36:23;63.39;56.29;70.22;;
73206;Laerm;61415;55.702;37.460;2023-02-02T00:36:54;60.98;55.11;67.65;;
73206;Laerm;61415;55.702;37.460;2023-02-02T00:37:25;62.09;53.34;67.56;;
73206;Laerm;61415;55.702;37.460;2023-02-02T00:37:56;61.84;53.83;67.31;;
73206;Laerm;61415;55.702;37.460;2023-02-02T00:38:27;60.60;55.28;66.21;;
73206;Laerm;61415;55.702;37.460;2023-02-02T00:38:57;62.18;57.07;67.17;;
73206;Laerm;61415;55.702;37.460;2023-02-02T00:39:28;57.41;52.42;63.40;;
73206;Laerm;61415;55.702;37.460;2023-02-02T00:39:59;61.70;54.58;68.00;;
73206;Laerm;61415;55.702;37.460;2023-02-02T00:40:30;59.19;54.67;64.62;;
73206;Laerm;61415;55.702;37.460;2023-02-02T00:41:00;63.44;58.54;70.34;;
73206;Laerm;61415;55.702;37.460;2023-02-02T00:41:31;69.03;55.89;73.06;;
73206;Laerm;61415;55.702;37.460;2023-02-02T00:42:02;59.46;54.81;66.00;;
73206;Laerm;61415;55.702;37.460;2023-02-02T00:42:33;62.87;54.59;68.12;;
73206;Laerm;61415;55.702;37.460;2023-02-02T00:43:04;60.27;52.87;66.51;;
73206;Laerm;61415;55.702;37.460;2023-02-02T00:43:34;59.70;54.69;66.78;;
73206;Laerm;61415;55.702;37.460;2023-02-02T00:44:05;62.65;55.74;67.09;;
73206;Laerm;61415;55.702;37.460;2023-02-02T00:44:54;56.31;52.41;61.37;;
73206;Laerm;61415;55.702;37.460;2023-02-02T00:45:43;59.97;54.30;65.64;;
73206;Laerm;61415;55.702;37.460;2023-02-02T00:46:16;63.75;55.91;69.19;;
73206;Laerm;61415;55.702;37.460;2023-02-02T00:46:47;59.04;53.02;70.69;;
73206;Laerm;61415;55.702;37.460;2023-02-02T00:47:18;63.74;57.10;72.64;;
73206;Laerm;61415;55.702;37.460;2023-02-02T00:47:49;63.41;57.01;68.16;;
73206;Laerm;61415;55.702;37.460;2023-02-02T00:48:20;62.67;56.95;69.98;;
73206;Laerm;61415;55.702;37.460;2023-02-02T00:48:51;61.65;57.80;65.21;;
73206;Laerm;61415;55.702;37.460;2023-02-02T00:49:21;62.73;59.48;67.86;;
73206;Laerm;61415;55.702;37.460;2023-02-02T00:49:52;64.52;58.04;68.35;;
73206;Laerm;61415;55.702;37.460;2023-02-02T00:50:23;63.64;58.76;68.23;;
73206;Laerm;61415;55.702;37.460;2023-02-02T00:50:54;64.41;57.04;71.09;;
73206;Laerm;61415;55.702;37.460;2023-02-02T00:51:24;64.13;58.91;70.69;;
73206;Laerm;61415;55.702;37.460;2023-02-02T00:51:55;62.72;56.72;68.02;;
73206;Laerm;61415;55.702;37.460;2023-02-02T00:52:26;61.56;56.44;65.34;;
73206;Laerm;61415;55.702;37.460;2023-02-02T00:52:57;66.07;60.78;69.85;;
73206;Laerm;61415;55.702;37.460;2023-02-02T00:53:28;61.85;57.39;65.33;;
73206;Laerm;61415;55.702;37.460;2023-02-02T00:53:59;58.07;52.34;62.36;;
73206;Laerm;61415;55.702;37.460;2023-02-02T00:54:30;60.16;55.40;66.75;;
73206;Laerm;61415;55.702;37.460;2023-02-02T00:55:01;59.97;54.08;66.48;;
73206;Laerm;61415;55.702;37.460;2023-02-02T00:55:31;60.26;53.43;65.42;;
73206;Laerm;61415;55.702;37.460;2023-02-02T00:56:02;61.21;56.52;65.64;;
73206;Laerm;61415;55.702;37.460;2023-02-02T00:56:33;56.43;52.96;62.86;;
73206;Laerm;61415;55.702;37.460;2023-02-02T00:57:05;57.58;53.72;61.10;;
73206;Laerm;61415;55.702;37.460;2023-02-02T00:57:35;62.59;56.54;66.78;;
73206;Laerm;61415;55.702;37.460;2023-02-02T00:58:06;61.65;56.77;66.32;;
73206;Laerm;61415;55.702;37.460;2023-02-02T00:58:37;59.94;52.30;65.09;;
73206;Laerm;61415;55.702;37.460;2023-02-02T00:59:08;58.66;54.11;63.94;;
73206;Laerm;61415;55.702;37.460;2023-02-02T00:59:39;60.54;55.01;66.07;;
73206;Laerm;61415;55.702;37.460;2023-02-02T01:00:11;61.46;56.91;65.38;;
73206;Laerm;61415;55.702;37.460;2023-02-02T01:00:42;59.21;53.49;63.85;;
73206;Laerm;61415;55.702;37.460;2023-02-02T01:01:17;59.44;53.62;64.50;;
73206;Laerm;61415;55.702;37.460;2023-02-02T01:01:48;56.20;52.70;61.89;;
73206;Laerm;61415;55.702;37.460;2023-02-02T01:02:18;59.88;54.61;64.61;;
73206;Laerm;61415;55.702;37.460;2023-02-02T01:02:49;63.76;58.26;68.21;;
73206;Laerm;61415;55.702;37.460;2023-02-02T01:03:20;65.76;59.79;70.77;;
73206;Laerm;61415;55.702;37.460;2023-02-02T01:03:51;62.32;56.78;65.77;;
73206;Laerm;61415;55.702;37.460;2023-02-02T01:04:22;58.96;55.10;63.10;;
73206;Laerm;61415;55.702;37.460;2023-02-02T01:04:53;60.66;55.89;65.55;;
73206;Laerm;61415;55.702;37.460;2023-02-02T01:05:23;59.33;55.64;64.03;;
73206;Laerm;61415;55.702;37.460;2023-02-02T01:05:54;60.09;55.81;65.63;;
73206;Laerm;61415;55.702;37.460;2023-02-02T01:06:25;58.61;53.13;62.19;;
73206;Laerm;61415;55.702;37.460;2023-02-02T01:06:56;60.38;55.23;65.18;;
73206;Laerm;61415;55.702;37.460;2023-02-02T01:07:27;60.87;54.63;67.02;;
73206;Laerm;61415;55.702;37.460;2023-02-02T01:07:58;59.82;55.01;66.57;;
73206;Laerm;61415;55.702;37.460;2023-02-02T01:08:29;57.59;51.92;63.80;;
73206;Laerm;61415;55.702;37.460;2023-02-02T01:08:59;59.72;54.47;64.00;;
73206;Laerm;61415;55.702;37.460;2023-02-02T01:09:30;65.07;58.83;71.84;;
73206;Laerm;61415;55.702;37.460;2023-02-02T01:10:01;61.02;55.06;65.50;;
73206;Laerm;61415;55.702;37.460;2023-02-02T01:10:32;63.53;58.01;70.81;;
73206;Laerm;61415;55.702;37.460;2023-02-02T01:11:03;59.85;54.47;65.19;;
73206;Laerm;61415;55.702;37.460;2023-02-02T01:11:35;58.16;52.26;64.51;;
73206;Laerm;61415;55.702;37.460;2023-02-02T01:12:05;61.95;56.41;66.90;;
73206;Laerm;61415;55.702;37.460;2023-02-02T01:12:36;59.61;54.69;64.28;;
73206;Laerm;61415;55.702;37.460;2023-02-02T01:13:07;62.76;57.54;67.62;;
73206;Laerm;61415;55.702;37.460;2023-02-02T01:13:38;61.81;54.58;66.83;;
73206;Laerm;61415;55.702;37.460;2023-02-02T01:14:09;59.24;55.59;63.70;;
73206;Laerm;61415;55.702;37.460;2023-02-02T01:14:40;60.68;55.47;65.11;;
73206;Laerm;61415;55.702;37.460;2023-02-02T01:15:11;60.66;55.37;66.87;;
73206;Laerm;61415;55.702;37.460;2023-02-02T01:15:42;63.59;57.33;68.53;;
73206;Laerm;61415;55.702;37.460;2023-02-02T01:16:13;61.30;54.56;66.37;;
73206;Laerm;61415;55.702;37.460;2023-02-02T01:16:43;56.75;53.08;61.88;;
73206;Laerm;61415;55.702;37.460;2023-02-02T01:17:14;61.77;53.71;66.67;;
73206;Laerm;61415;55.702;37.460;2023-02-02T01:17:45;59.16;55.91;61.76;;
73206;Laerm;61415;55.702;37.460;2023-02-02T01:18:16;60.46;55.51;64.14;;
73206;Laerm;61415;55.702;37.460;2023-02-02T01:18:47;60.11;54.74;66.63;;
73206;Laerm;61415;55.702;37.460;2023-02-02T01:19:18;61.66;56.38;65.37;;
73206;Laerm;61415;55.702;37.460;2023-02-02T01:19:48;61.42;56.75;64.98;;
73206;Laerm;61415;55.702;37.460;2023-02-02T01:20:19;59.33;54.29;64.25;;
73206;Laerm;61415;55.702;37.460;2023-02-02T01:20:57;65.17;54.34;72.19;;
73206;Laerm;61415;55.702;37.460;2023-02-02T01:21:28;58.42;54.38;64.53;;
73206;Laerm;61415;55.702;37.460;2023-02-02T01:21:58;58.57;52.74;63.89;;
73206;Laerm;61415;55.702;37.460;2023-02-02T01:22:29;61.33;56.35;65.36;;
73206;Laerm;61415;55.702;37.460;2023-02-02T01:23:00;64.37;57.24;69.47;;
73206;Laerm;61415;55.702;37.460;2023-02-02T01:23:31;59.92;55.92;65.89;;
73206;Laerm;61415;55.702;37.460;2023-02-02T01:24:02;60.35;56.32;64.30;;
73206;Laerm;61415;55.702;37.460;2023-02-02T01:24:33;60.41;54.48;64.66;;
73206;Laerm;61415;55.702;37.460;2023-02-02T01:25:04;58.89;55.14;62.68;;
73206;Laerm;61415;55.702;37.460;2023-02-02T01:25:34;58.61;54.39;62.47;;
73206;Laerm;61415;55.702;37.460;2023-02-02T01:26:09;58.43;53.40;63.24;;
73206;Laerm;61415;55.702;37.460;2023-02-02T01:26:40;57.29;52.70;63.13;;
73206;Laerm;61415;55.702;37.460;2023-02-02T01:27:11;58.87;52.08;63.96;;
73206;Laerm;61415;55.702;37.460;2023-02-02T01:27:42;55.76;51.83;59.78;;
73206;Laerm;61415;55.702;37.460;2023-02-02T01:28:12;59.86;53.20;65.24;;
73206;Laerm;61415;55.702;37.460;2023-02-02T01:28:43;58.60;53.68;69.89;;
73206;Laerm;61415;55.702;37.460;2023-02-02T01:29:15;60.25;55.25;68.17;;
73206;Laerm;61415;55.702;37.460;2023-02-02T01:29:45;63.98;55.73;69.14;;
73206;Laerm;61415;55.702;37.460;2023-02-02T01:30:16;61.28;53.35;67.28;;
73206;Laerm;61415;55.702;37.460;2023-02-02T01:30:47;58.42;53.21;63.75;;
73206;Laerm;61415;55.702;37.460;2023-02-02T01:31:19;61.41;55.82;64.66;;
73206;Laerm;61415;55.702;37.460;2023-02-02T01:31:50;61.80;56.66;66.72;;
73206;Laerm;61415;55.702;37.460;2023-02-02T01:32:20;61.41;56.54;65.78;;
73206;Laerm;61415;55.702;37.460;2023-02-02T01:32:52;61.29;56.80;64.98;;
73206;Laerm;61415;55.702;37.460;2023-02-02T01:33:24;62.03;56.65;66.31;;
73206;Laerm;61415;55.702;37.460;2023-02-02T01:33:54;62.82;57.58;68.54;;
73206;Laerm;61415;55.702;37.460;2023-02-02T01:34:25;61.26;54.01;66.51;;
73206;Laerm;61415;55.702;37.460;2023-02-02T01:34:56;60.58;53.63;65.31;;
73206;Laerm;61415;55.702;37.460;2023-02-02T01:35:27;59.52;55.91;66.96;;
73206;Laerm;61415;55.702;37.460;2023-02-02T01:35:58;56.92;51.78;62.89;;
73206;Laerm;61415;55.702;37.460;2023-02-02T01:36:28;57.56;53.01;61.89;;
73206;Laerm;61415;55.702;37.460;2023-02-02T01:36:59;59.50;56.13;63.36;;
73206;Laerm;61415;55.702;37.460;2023-02-02T01:37:30;65.76;57.97;73.20;;
73206;Laerm;61415;55.702;37.460;2023-02-02T01:38:01;64.38;57.26;71.53;;
73206;Laerm;61415;55.702;37.460;2023-02-02T01:38:31;60.09;55.12;66.27;;
73206;Laerm;61415;55.702;37.460;2023-02-02T01:39:02;61.23;57.20;67.67;;
73206;Laerm;61415;55.702;37.460;2023-02-02T01:39:33;62.51;58.22;67.20;;
73206;Laerm;61415;55.702;37.460;2023-02-02T01:40:04;58.82;54.45;62.36;;
73206;Laerm;61415;55.702;37.460;2023-02-02T01:40:35;60.10;54.82;64.69;;
73206;Laerm;61415;55.702;37.460;2023-02-02T01:41:06;64.04;59.65;68.24;;
73206;Laerm;61415;55.702;37.460;2023-02-02T01:41:38;62.34;57.58;67.13;;
73206;Laerm;61415;55.702;37.460;2023-02-02T01:42:11;60.09;55.90;64.59;;
73206;Laerm;61415;55.702;37.460;2023-02-02T01:42:42;60.63;54.45;65.87;;
73206;Laerm;61415;55.702;37.460;2023-02-02T01:43:20;62.01;54.40;69.18;;
73206;Laerm;61415;55.702;37.460;2023-02-02T01:43:53;64.20;58.92;69.06;;
73206;Laerm;61415;55.702;37.460;2023-02-02T01:45:22;64.61;54.55;73.18;;
73206;Laerm;61415;55.702;37.460;2023-02-02T01:45:54;61.29;55.71;67.66;;
73206;Laerm;61415;55.702;37.460;2023-02-02T01:46:32;64.92;57.42;69.42;;
73206;Laerm;61415;55.702;37.460;2023-02-02T01:47:03;58.31;53.83;63.02;;
73206;Laerm;61415;55.702;37.460;2023-02-02T01:47:45;61.90;56.12;66.46;;
73206;Laerm;61415;55.702;37.460;2023-02-02T01:48:18;61.41;53.11;66.08;;
73206;Laerm;61415;55.702;37.460;2023-02-02T01:48:51;60.27;56.61;64.34;;
73206;Laerm;61415;55.702;37.460;2023-02-02T01:49:23;61.87;56.45;65.67;;
73206;Laerm;61415;55.702;37.460;2023-02-02T01:49:54;60.79;55.82;64.35;;
73206;Laerm;61415;55.702;37.460;2023-02-02T01:50:29;60.97;55.46;65.03;;
73206;Laerm;61415;55.702;37.460;2023-02-02T01:51:01;61.46;56.00;66.06;;
73206;Laerm;61415;55.702;37.460;2023-02-02T01:51:35;59.64;53.72;65.54;;
73206;Laerm;61415;55.702;37.460;2023-02-02T01:52:08;58.12;53.44;62.78;;
73206;Laerm;61415;55.702;37.460;2023-02-02T01:52:39;57.26;53.80;63.27;;
73206;Laerm;61415;55.702;37.460;2023-02-02T01:53:13;59.01;52.86;64.13;;
73206;Laerm;61415;55.702;37.460;2023-02-02T01:53:44;63.57;60.12;68.22;;
73206;Laerm;61415;55.702;37.460;2023-02-02T01:54:17;64.19;59.80;72.69;;
73206;Laerm;61415;55.702;37.460;2023-02-02T01:54:50;62.66;54.54;69.09;;
73206;Laerm;61415;55.702;37.460;2023-02-02T01:55:23;59.65;55.13;64.33;;
73206;Laerm;61415;55.702;37.460;2023-02-02T01:55:56;60.61;56.43;70.90;;
73206;Laerm;61415;55.702;37.460;2023-02-02T01:56:36;62.48;55.31;67.03;;
73206;Laerm;61415;55.702;37.460;2023-02-02T01:57:14;59.73;54.87;63.77;;
73206;Laerm;61415;55.702;37.460;2023-02-02T01:58:25;61.25;56.08;65.97;;
73206;Laerm;61415;55.702;37.460;2023-02-02T01:58:56;62.77;57.02;68.70;;
73206;Laerm;61415;55.702;37.460;2023-02-02T01:59:28;64.26;56.86;69.87;;
73206;Laerm;61415;55.702;37.460;2023-02-02T02:00:01;60.86;55.63;65.77;;
73206;Laerm;61415;55.702;37.460;2023-02-02T02:00:33;62.48;56.07;67.08;;
73206;Laerm;61415;55.702;37.460;2023-02-02T02:01:04;63.65;58.27;68.85;;
73206;Laerm;61415;55.702;37.460;2023-02-02T02:01:35;61.58;55.73;68.86;;
73206;Laerm;61415;55.702;37.460;2023-02-02T02:02:05;60.95;56.79;64.12;;
73206;Laerm;61415;55.702;37.460;2023-02-02T02:02:37;62.79;56.79;67.36;;
73206;Laerm;61415;55.702;37.460;2023-02-02T02:03:10;58.38;54.61;61.92;;
73206;Laerm;61415;55.702;37.460;2023-02-02T02:03:41;61.80;55.38;66.32;;
73206;Laerm;61415;55.702;37.460;2023-02-02T02:04:12;62.13;56.13;67.53;;
73206;Laerm;61415;55.702;37.460;2023-02-02T02:04:43;60.20;55.88;63.84;;
73206;Laerm;61415;55.702;37.460;2023-02-02T02:05:15;61.95;58.41;65.59;;
73206;Laerm;61415;55.702;37.460;2023-02-02T02:05:50;65.64;59.26;71.44;;
73206;Laerm;61415;55.702;37.460;2023-02-02T02:06:21;64.44;57.52;71.29;;
73206;Laerm;61415;55.702;37.460;2023-02-02T02:06:55;74.46;55.10;88.95;;
73206;Laerm;61415;55.702;37.460;2023-02-02T02:07:26;73.11;58.92;85.12;;
73206;Laerm;61415;55.702;37.460;2023-02-02T02:08:00;60.71;55.80;65.35;;
73206;Laerm;61415;55.702;37.460;2023-02-02T02:08:49;60.06;56.63;64.33;;
73206;Laerm;61415;55.702;37.460;2023-02-02T02:09:22;61.47;56.87;65.70;;
73206;Laerm;61415;55.702;37.460;2023-02-02T02:09:52;62.35;54.69;69.18;;
73206;Laerm;61415;55.702;37.460;2023-02-02T02:10:23;62.92;59.10;67.22;;
73206;Laerm;61415;55.702;37.460;2023-02-02T02:10:54;63.94;56.49;67.86;;
73206;Laerm;61415;55.702;37.460;2023-02-02T02:11:25;64.06;58.23;68.71;;
73206;Laerm;61415;55.702;37.460;2023-02-02T02:11:57;60.93;54.85;65.94;;
73206;Laerm;61415;55.702;37.460;2023-02-02T02:12:27;62.31;55.12;67.72;;
73206;Laerm;61415;55.702;37.460;2023-02-02T02:12:58;64.13;58.63;69.05;;
73206;Laerm;61415;55.702;37.460;2023-02-02T02:13:29;62.87;57.13;67.28;;
73206;Laerm;61415;55.702;37.460;2023-02-02T02:14:19;63.08;57.56;66.68;;
73206;Laerm;61415;55.702;37.460;2023-02-02T02:15:09;64.83;59.28;71.81;;
73206;Laerm;61415;55.702;37.460;2023-02-02T02:16:01;61.46;55.31;68.19;;
73206;Laerm;61415;55.702;37.460;2023-02-02T02:16:53;62.11;56.45;66.26;;
73206;Laerm;61415;55.702;37.460;2023-02-02T02:17:30;65.18;58.20;68.82;;
73206;Laerm;61415;55.702;37.460;2023-02-02T02:22:07;62.64;58.55;71.25;;
73206;Laerm;61415;55.702;37.460;2023-02-02T02:26:23;62.77;55.79;69.91;;
73206;Laerm;61415;55.702;37.460;2023-02-02T02:27:47;63.98;57.61;67.49;;
73206;Laerm;61415;55.702;37.460;2023-02-02T02:30:06;63.59;57.15;67.43;;
73206;Laerm;61415;55.702;37.460;2023-02-02T02:31:25;63.17;58.77;67.16;;
73206;Laerm;61415;55.702;37.460;2023-02-02T02:32:35;57.98;54.57;60.64;;
73206;Laerm;61415;55.702;37.460;2023-02-02T02:33:14;61.43;56.05;66.70;;
73206;Laerm;61415;55.702;37.460;2023-02-02T02:33:56;60.56;56.64;64.45;;
73206;Laerm;61415;55.702;37.460;2023-02-02T02:34:33;60.81;56.23;65.37;;
73206;Laerm;61415;55.702;37.460;2023-02-02T02:36:54;64.83;58.23;70.76;;
73206;Laerm;61415;55.702;37.460;2023-02-02T02:37:29;62.74;56.07;68.01;;
73206;Laerm;61415;55.702;37.460;2023-02-02T02:39:48;61.67;57.72;67.71;;
73206;Laerm;61415;55.702;37.460;2023-02-02T02:40:25;62.99;56.20;68.53;;
73206;Laerm;61415;55.702;37.460;2023-02-02T02:40:59;60.90;55.14;65.76;;
73206;Laerm;61415;55.702;37.460;2023-02-02T02:41:33;62.62;57.31;66.20;;
73206;Laerm;61415;55.702;37.460;2023-02-02T02:42:25;63.37;57.40;69.19;;
73206;Laerm;61415;55.702;37.460;2023-02-02T02:42:58;62.36;57.44;66.96;;
73206;Laerm;61415;55.702;37.460;2023-02-02T02:43:41;66.33;59.25;70.31;;
73206;Laerm;61415;55.702;37.460;2023-02-02T02:44:13;65.58;60.58;70.27;;
73206;Laerm;61415;55.702;37.460;2023-02-02T02:44:46;62.88;57.98;68.39;;
73206;Laerm;61415;55.702;37.460;2023-02-02T02:45:17;62.82;57.72;67.21;;
73206;Laerm;61415;55.702;37.460;2023-02-02T02:45:49;63.16;59.56;67.50;;
73206;Laerm;61415;55.702;37.460;2023-02-02T02:46:20;63.17;59.36;66.57;;
73206;Laerm;61415;55.702;37.460;2023-02-02T02:46:51;64.41;57.78;71.08;;
73206;Laerm;61415;55.702;37.460;2023-02-02T02:47:22;66.25;63.00;69.48;;
73206;Laerm;61415;55.702;37.460;2023-02-02T02:47:53;63.98;59.44;66.83;;
73206;Laerm;61415;55.702;37.460;2023-02-02T02:48:24;60.04;53.62;65.72;;
73206;Laerm;61415;55.702;37.460;2023-02-02T02:48:56;61.70;53.98;66.89;;
73206;Laerm;61415;55.702;37.460;2023-02-02T02:49:27;66.72;61.51;72.85;;
73206;Laerm;61415;55.702;37.460;2023-02-02T02:49:58;66.29;60.54;71.37;;
73206;Laerm;61415;55.702;37.460;2023-02-02T02:50:29;61.62;55.63;68.35;;
73206;Laerm;61415;55.702;37.460;2023-02-02T02:51:07;64.11;59.44;68.27;;
73206;Laerm;61415;55.702;37.460;2023-02-02T02:51:42;63.88;60.77;67.52;;
73206;Laerm;61415;55.702;37.460;2023-02-02T02:52:14;63.68;60.57;68.21;;
73206;Laerm;61415;55.702;37.460;2023-02-02T02:52:45;64.48;60.31;68.64;;
73206;Laerm;61415;55.702;37.460;2023-02-02T02:53:19;63.09;59.76;70.94;;
73206;Laerm;61415;55.702;37.460;2023-02-02T02:53:51;63.77;59.30;67.41;;
73206;Laerm;61415;55.702;37.460;2023-02-02T02:54:26;66.52;62.50;69.39;;
73206;Laerm;61415;55.702;37.460;2023-02-02T02:54:58;65.68;62.26;68.67;;
73206;Laerm;61415;55.702;37.460;2023-02-02T02:55:33;63.74;59.90;68.16;;
73206;Laerm;61415;55.702;37.460;2023-02-02T02:56:46;67.86;61.72;70.78;;
73206;Laerm;61415;55.702;37.460;2023-02-02T02:58:03;61.49;55.81;66.88;;
73206;Laerm;61415;55.702;37.460;2023-02-02T02:58:40;66.72;57.48;71.62;;
73206;Laerm;61415;55.702;37.460;2023-02-02T03:00:45;62.79;57.88;68.31;;
73206;Laerm;61415;55.702;37.460;2023-02-02T03:01:20;65.44;61.56;70.43;;
73206;Laerm;61415;55.702;37.460;2023-02-02T03:02:08;62.95;57.19;68.55;;
73206;Laerm;61415;55.702;37.460;2023-02-02T03:04:39;66.43;59.94;70.20;;
73206;Laerm;61415;55.702;37.460;2023-02-02T03:07:17;64.63;60.19;67.56;;
73206;Laerm;61415;55.702;37.460;2023-02-02T03:07:50;68.01;60.56;72.22;;
73206;Laerm;61415;55.702;37.460;2023-02-02T03:08:43;68.72;63.17;74.08;;
73206;Laerm;61415;55.702;37.460;2023-02-02T03:09:18;66.79;63.49;70.91;;
73206;Laerm;61415;55.702;37.460;2023-02-02T03:09:52;63.82;60.31;67.59;;
73206;Laerm;61415;55.702;37.460;2023-02-02T03:10:25;67.39;64.46;70.47;;
73206;Laerm;61415;55.702;37.460;2023-02-02T03:10:58;66.63;62.91;70.03;;
73206;Laerm;61415;55.702;37.460;2023-02-02T03:11:29;68.85;63.89;73.15;;
73206;Laerm;61415;55.702;37.460;2023-02-02T03:12:00;64.34;60.52;68.92;;
73206;Laerm;61415;55.702;37.460;2023-02-02T03:12:31;64.67;61.41;68.74;;
73206;Laerm;61415;55.702;37.460;2023-02-02T03:13:05;67.14;63.72;71.94;;
73206;Laerm;61415;55.702;37.460;2023-02-02T03:13:36;66.01;61.19;69.80;;
73206;Laerm;61415;55.702;37.460;2023-02-02T03:14:07;65.94;61.15;70.42;;
73206;Laerm;61415;55.702;37.460;2023-02-02T03:14:39;66.40;60.28;72.37;;
73206;Laerm;61415;55.702;37.460;2023-02-02T03:15:10;67.67;64.36;70.58;;
73206;Laerm;61415;55.702;37.460;2023-02-02T03:15:44;64.60;60.81;67.83;;
73206;Laerm;61415;55.702;37.460;2023-02-02T03:16:15;64.82;61.33;69.60;;
73206;Laerm;61415;55.702;37.460;2023-02-02T03:16:49;64.86;60.59;69.70;;
73206;Laerm;61415;55.702;37.460;2023-02-02T03:17:20;68.13;62.26;72.57;;
73206;Laerm;61415;55.702;37.460;2023-02-02T03:17:51;66.19;61.83;73.02;;
73206;Laerm;61415;55.702;37.460;2023-02-02T03:18:24;66.08;63.08;70.14;;
73206;Laerm;61415;55.702;37.460;2023-02-02T03:18:56;64.27;59.89;69.14;;
73206;Laerm;61415;55.702;37.460;2023-02-02T03:19:27;66.18;62.61;69.93;;
73206;Laerm;61415;55.702;37.460;2023-02-02T03:19:58;66.89;64.05;71.05;;
73206;Laerm;61415;55.702;37.460;2023-02-02T03:20:29;65.86;62.75;68.54;;
73206;Laerm;61415;55.702;37.460;2023-02-02T03:21:00;66.00;62.32;70.00;;
73206;Laerm;61415;55.702;37.460;2023-02-02T03:21:31;67.83;63.48;71.06;;
73206;Laerm;61415;55.702;37.460;2023-02-02T03:22:02;65.33;61.44;69.18;;
73206;Laerm;61415;55.702;37.460;2023-02-02T03:22:32;66.70;63.06;70.45;;